createdAt,value
2019-04-09T00:01:57.190Z,0.80
2019-04-09T00:04:23.663Z,0.80
2019-04-09T00:06:50.229Z,0.90
2019-04-09T00:09:17.453Z,0.90
2019-04-09T00:11:43.975Z,0.90
2019-04-09T00:14:11.318Z,0.90
2019-04-09T00:16:37.906Z,0.90
2019-04-09T00:19:04.492Z,0.90
2019-04-09T00:21:31.666Z,1.00
2019-04-09T00:23:58.148Z,0.90
2019-04-09T00:26:24.819Z,0.80
2019-04-09T00:28:51.736Z,0.90
2019-04-09T00:31:18.515Z,1.00
2019-04-09T00:33:44.907Z,0.90
2019-04-09T00:36:11.191Z,0.90
2019-04-09T00:38:37.714Z,0.90
2019-04-09T00:41:04.770Z,0.90
2019-04-09T00:43:31.242Z,0.80
2019-04-09T00:45:58.670Z,0.90
2019-04-09T00:48:25.291Z,0.90
2019-04-09T00:50:52.104Z,0.90
2019-04-09T00:53:18.754Z,0.90
2019-04-09T00:55:45.912Z,0.90
2019-04-09T00:58:12.510Z,0.90
2019-04-09T01:00:44.733Z,0.90
2019-04-09T01:03:12.065Z,0.90
2019-04-09T01:05:38.670Z,0.90
2019-04-09T01:08:05.052Z,0.90
2019-04-09T01:10:32.524Z,1.00
2019-04-09T01:13:00.025Z,1.00
2019-04-09T01:15:27.555Z,1.10
2019-04-09T01:17:54.434Z,1.10
2019-04-09T01:20:21.054Z,1.10
2019-04-09T01:22:47.502Z,1.10
2019-04-09T01:25:16.729Z,1.20
2019-04-09T01:27:45.853Z,1.10
2019-04-09T01:30:26.183Z,1.20
2019-04-09T01:32:58.041Z,1.20
2019-04-09T01:35:26.996Z,1.20
2019-04-09T01:37:55.644Z,1.20
2019-04-09T01:40:23.890Z,1.20
2019-04-09T01:43:02.102Z,1.20
2019-04-09T01:45:39.681Z,1.20
2019-04-09T01:48:11.726Z,1.20
2019-04-09T01:50:57.933Z,1.20
2019-04-09T01:53:42.740Z,1.20
2019-04-09T01:56:11.149Z,1.20
2019-04-09T01:58:51.552Z,1.20
2019-04-09T02:01:25.995Z,1.20
2019-04-09T02:04:06.058Z,1.20
2019-04-09T02:06:52.477Z,1.20
2019-04-09T02:09:23.643Z,1.20
2019-04-09T02:11:52.067Z,1.20
2019-04-09T02:14:21.355Z,1.20
2019-04-09T02:17:04.695Z,1.20
2019-04-09T02:19:47.834Z,1.20
2019-04-09T02:22:16.074Z,1.30
2019-04-09T02:24:54.205Z,1.30
2019-04-09T02:27:38.534Z,1.30
2019-04-09T02:30:14.652Z,1.30
2019-04-09T02:33:00.901Z,1.40
2019-04-09T02:35:45.993Z,1.40
2019-04-09T02:38:14.355Z,1.40
2019-04-09T02:40:59.306Z,1.40
2019-04-09T02:43:30.805Z,1.40
2019-04-09T02:45:59.762Z,1.30
2019-04-09T02:48:31.741Z,1.30
2019-04-09T02:51:00.092Z,1.30
2019-04-09T02:53:43.137Z,1.30
2019-04-09T02:56:30.281Z,1.30
2019-04-09T02:59:07.586Z,1.30
2019-04-09T03:01:36.559Z,1.30
2019-04-09T03:04:18.194Z,1.30
2019-04-09T03:06:46.624Z,1.30
2019-04-09T03:09:18.168Z,1.30
2019-04-09T03:11:52.205Z,1.30
2019-04-09T03:14:32.676Z,1.20
2019-04-09T03:17:03.966Z,1.30
2019-04-09T03:19:38.847Z,1.20
2019-04-09T03:22:07.209Z,1.20
2019-04-09T03:24:48.452Z,1.30
2019-04-09T03:27:36.542Z,1.20
2019-04-09T03:30:08.033Z,1.30
2019-04-09T03:32:53.995Z,1.20
2019-04-09T03:35:25.382Z,1.20
2019-04-09T03:37:53.662Z,1.20
2019-04-09T03:40:22.163Z,1.20
2019-04-09T03:42:50.391Z,1.10
2019-04-09T03:45:18.692Z,1.10
2019-04-09T03:47:55.685Z,1.10
2019-04-09T03:50:28.556Z,1.00
2019-04-09T03:53:02.470Z,1.00
2019-04-09T03:55:30.846Z,1.00
2019-04-09T03:58:16.392Z,1.00
2019-04-09T04:00:41.267Z,0.90
2019-04-09T04:03:25.594Z,1.00
2019-04-09T04:05:54.797Z,1.00
2019-04-09T04:08:26.144Z,1.10
2019-04-09T04:10:57.312Z,1.10
2019-04-09T04:13:31.646Z,1.10
2019-04-09T04:16:15.596Z,1.10
2019-04-09T04:18:50.353Z,1.20
2019-04-09T04:21:30.701Z,1.10
2019-04-09T04:24:05.735Z,1.10
2019-04-09T04:26:40.679Z,1.10
2019-04-09T04:29:09.098Z,1.00
2019-04-09T04:31:37.838Z,1.00
2019-04-09T04:34:23.016Z,1.10
2019-04-09T04:37:08.448Z,1.10
2019-04-09T04:39:43.407Z,1.00
2019-04-09T04:42:11.626Z,1.10
2019-04-09T04:44:42.965Z,1.00
2019-04-09T04:47:13.893Z,1.10
2019-04-09T04:49:53.947Z,1.10
2019-04-09T04:52:25.894Z,1.00
2019-04-09T04:54:57.109Z,1.00
2019-04-09T04:57:34.468Z,1.00
2019-04-09T05:00:02.814Z,1.00
2019-04-09T05:02:33.981Z,1.10
2019-04-09T05:05:05.122Z,1.00
2019-04-09T05:07:43.414Z,1.00
2019-04-09T05:10:19.193Z,1.10
2019-04-09T05:12:51.204Z,1.20
2019-04-09T05:15:19.597Z,1.10
2019-04-09T05:17:56.746Z,1.10
2019-04-09T05:20:51.339Z,1.10
2019-04-09T05:23:22.078Z,1.10
2019-04-09T05:25:51.491Z,1.10
2019-04-09T05:28:20.721Z,1.10
2019-04-09T05:30:52.663Z,1.10
2019-04-09T05:33:32.810Z,1.00
2019-04-09T05:36:18.055Z,1.00
2019-04-09T05:39:02.433Z,1.00
2019-04-09T05:41:43.749Z,1.10
2019-04-09T05:44:23.257Z,1.10
2019-04-09T05:46:54.378Z,1.10
2019-04-09T05:49:35.969Z,1.20
2019-04-09T05:52:21.158Z,1.10
2019-04-09T05:54:58.116Z,1.20
2019-04-09T05:57:26.463Z,1.10
2019-04-09T05:59:57.661Z,1.20
2019-04-09T06:02:31.774Z,1.20
2019-04-09T06:05:08.997Z,1.20
2019-04-09T06:07:40.884Z,1.20
2019-04-09T06:10:09.259Z,1.00
2019-04-09T06:12:36.518Z,1.10
2019-04-09T06:15:06.391Z,1.20
2019-04-09T06:17:33.080Z,1.20
2019-04-09T06:20:00.082Z,1.20
2019-04-09T06:22:27.482Z,1.10
2019-04-09T06:24:54.117Z,1.00
2019-04-09T06:27:20.606Z,1.10
2019-04-09T06:29:47.807Z,1.10
2019-04-09T06:32:18.872Z,1.00
2019-04-09T06:34:50.858Z,1.10
2019-04-09T06:37:19.260Z,1.00
2019-04-09T06:40:08.386Z,1.00
2019-04-09T06:42:36.757Z,1.00
2019-04-09T06:45:10.002Z,1.10
2019-04-09T06:47:38.261Z,1.10
2019-04-09T06:50:07.700Z,1.00
2019-04-09T06:52:44.946Z,1.00
2019-04-09T06:55:19.174Z,0.90
2019-04-09T06:58:05.736Z,1.00
2019-04-09T07:00:49.294Z,1.10
2019-04-09T07:03:20.357Z,1.10
2019-04-09T07:06:00.663Z,1.20
2019-04-09T07:08:46.748Z,1.20
2019-04-09T07:11:31.517Z,1.20
2019-04-09T07:14:06.290Z,1.10
2019-04-09T07:16:34.681Z,1.10
2019-04-09T07:19:21.160Z,1.20
2019-04-09T07:21:52.820Z,1.10
2019-04-09T07:24:39.186Z,1.10
2019-04-09T07:27:14.104Z,1.10
2019-04-09T07:29:57.289Z,1.30
2019-04-09T07:32:23.604Z,1.30
2019-04-09T07:35:08.419Z,1.30
2019-04-09T07:37:52.942Z,1.20
2019-04-09T07:40:39.290Z,1.20
2019-04-09T07:43:13.140Z,1.20
2019-04-09T07:45:58.035Z,1.10
2019-04-09T07:48:30.190Z,1.20
2019-04-09T07:51:14.318Z,1.30
2019-04-09T07:53:41.262Z,1.40
2019-04-09T07:56:09.744Z,1.10
2019-04-09T07:58:43.123Z,1.00
2019-04-09T08:01:20.268Z,1.20
2019-04-09T08:03:51.649Z,1.10
2019-04-09T08:06:29.035Z,1.00
2019-04-09T08:09:00.398Z,0.80
2019-04-09T08:11:38.279Z,0.90
2019-04-09T08:14:06.760Z,1.00
2019-04-09T08:16:40.989Z,1.10
2019-04-09T08:19:12.380Z,1.30
2019-04-09T08:21:43.548Z,1.40
2019-04-09T08:24:26.107Z,1.50
2019-04-09T08:27:12.560Z,1.30
2019-04-09T08:29:46.431Z,1.30
2019-04-09T08:32:20.864Z,1.30
2019-04-09T08:34:47.532Z,1.40
2019-04-09T08:37:21.398Z,1.50
2019-04-09T08:39:55.366Z,1.30
2019-04-09T08:42:27.787Z,1.30
2019-04-09T08:44:56.670Z,1.50
2019-04-09T08:47:40.000Z,1.30
2019-04-09T08:50:08.264Z,1.30
2019-04-09T08:52:44.281Z,1.20
2019-04-09T08:55:13.618Z,1.10
2019-04-09T08:57:49.364Z,1.30
2019-04-09T09:00:45.260Z,1.50
2019-04-09T09:03:08.855Z,1.50
2019-04-09T09:05:56.390Z,1.20
2019-04-09T09:08:22.981Z,1.20
2019-04-09T09:10:53.408Z,1.30
2019-04-09T09:13:38.731Z,1.30
2019-04-09T09:16:13.348Z,0.90
2019-04-09T09:18:44.571Z,0.90
2019-04-09T09:21:26.621Z,1.00
2019-04-09T09:23:48.941Z,1.00
2019-04-09T09:26:23.994Z,1.20
2019-04-09T09:29:09.303Z,1.30
2019-04-09T09:31:44.875Z,1.20
2019-04-09T09:34:19.733Z,1.20
2019-04-09T09:37:00.209Z,1.10
2019-04-09T09:39:37.073Z,1.10
2019-04-09T09:42:13.346Z,0.90
2019-04-09T09:44:44.571Z,1.00
2019-04-09T09:47:18.638Z,1.10
2019-04-09T09:50:05.464Z,1.10
2019-04-09T09:52:32.377Z,1.10
2019-04-09T09:55:02.602Z,1.30
2019-04-09T09:57:44.520Z,1.10
2019-04-09T10:00:31.752Z,1.10
2019-04-09T10:03:17.246Z,1.00
2019-04-09T10:05:45.700Z,0.70
2019-04-09T10:08:32.686Z,0.80
2019-04-09T10:11:17.446Z,1.00
2019-04-09T10:13:55.530Z,1.20
2019-04-09T10:16:25.729Z,1.20
2019-04-09T10:19:03.918Z,1.30
2019-04-09T10:21:34.526Z,1.30
2019-04-09T10:24:13.218Z,1.40
2019-04-09T10:26:40.546Z,1.30
2019-04-09T10:29:15.193Z,1.30
2019-04-09T10:31:51.792Z,1.30
2019-04-09T10:34:36.433Z,1.00
2019-04-09T10:37:08.947Z,1.00
2019-04-09T10:39:51.716Z,1.10
2019-04-09T10:42:29.201Z,1.20
2019-04-09T10:44:57.499Z,1.20
2019-04-09T10:47:31.683Z,1.10
2019-04-09T10:50:15.510Z,1.20
2019-04-09T10:52:43.859Z,1.20
2019-04-09T10:55:27.681Z,1.20
2019-04-09T10:58:17.797Z,1.10
2019-04-09T11:00:59.447Z,1.10
2019-04-09T11:03:34.629Z,1.10
2019-04-09T11:06:06.138Z,0.90
2019-04-09T11:08:38.082Z,0.80
2019-04-09T11:11:18.598Z,1.00
2019-04-09T11:14:04.318Z,1.00
2019-04-09T11:16:38.064Z,0.90
2019-04-09T11:19:10.648Z,1.00
2019-04-09T11:21:48.010Z,0.90
2019-04-09T11:24:33.775Z,0.90
2019-04-09T11:27:21.806Z,0.80
2019-04-09T11:29:50.360Z,1.00
2019-04-09T11:32:19.815Z,1.00
2019-04-09T11:35:08.101Z,1.10
2019-04-09T11:37:51.589Z,1.00
2019-04-09T11:40:20.897Z,0.90
2019-04-09T11:42:58.152Z,0.90
2019-04-09T11:45:33.306Z,1.00
2019-04-09T11:48:01.702Z,0.80
2019-04-09T11:50:46.864Z,0.90
2019-04-09T11:53:20.997Z,0.90
2019-04-09T11:55:51.953Z,0.80
2019-04-09T11:58:21.394Z,0.90
2019-04-09T12:01:04.864Z,0.90
2019-04-09T12:03:39.386Z,0.80
2019-04-09T12:06:11.145Z,0.80
2019-04-09T12:08:57.468Z,0.60
2019-04-09T12:11:38.805Z,0.70
2019-04-09T12:14:24.098Z,0.60
2019-04-09T12:16:55.544Z,0.70
2019-04-09T12:19:41.638Z,0.60
2019-04-09T12:22:10.059Z,0.80
2019-04-09T12:24:53.605Z,0.80
2019-04-09T12:27:34.041Z,0.80
2019-04-09T12:30:03.559Z,0.90
2019-04-09T12:32:32.293Z,1.00
2019-04-09T12:35:12.954Z,1.00
2019-04-09T12:37:41.804Z,1.00
2019-04-09T12:40:10.790Z,0.80
2019-04-09T12:42:42.776Z,1.00
2019-04-09T12:45:17.007Z,0.90
2019-04-09T12:47:52.409Z,1.10
2019-04-09T12:50:29.852Z,1.10
2019-04-09T12:53:03.997Z,1.10
2019-04-09T12:55:32.854Z,1.20
2019-04-09T12:58:04.358Z,1.00
2019-04-09T13:00:52.689Z,1.20
2019-04-09T13:03:43.226Z,0.90
2019-04-09T13:06:33.692Z,1.10
2019-04-09T13:09:04.671Z,1.30
2019-04-09T13:11:48.902Z,1.20
2019-04-09T13:14:39.583Z,1.30
2019-04-09T13:17:11.817Z,1.40
2019-04-09T13:19:52.152Z,1.40
2019-04-09T13:22:34.099Z,1.50
2019-04-09T13:25:18.995Z,1.50
2019-04-09T13:27:50.803Z,1.50
2019-04-09T13:30:22.021Z,1.50
2019-04-09T13:33:04.430Z,1.20
2019-04-09T13:35:41.725Z,1.20
2019-04-09T13:38:27.032Z,1.30
2019-04-09T13:40:55.773Z,1.40
2019-04-09T13:43:24.222Z,1.30
2019-04-09T13:46:01.051Z,1.10
2019-04-09T13:48:44.800Z,1.20
2019-04-09T13:51:25.588Z,1.10
2019-04-09T13:53:53.267Z,1.10
2019-04-09T13:56:21.021Z,1.10
2019-04-09T13:58:47.755Z,1.10
2019-04-09T14:01:14.635Z,1.20
2019-04-09T14:03:54.686Z,1.10
2019-04-09T14:06:21.349Z,1.20
2019-04-09T14:08:47.835Z,1.00
2019-04-09T14:11:14.387Z,1.00
2019-04-09T14:13:40.842Z,1.20
2019-04-09T14:16:07.430Z,1.30
2019-04-09T14:18:34.546Z,1.30
2019-04-09T14:21:02.264Z,1.20
2019-04-09T14:23:30.039Z,1.10
2019-04-09T14:25:56.624Z,1.00
2019-04-09T14:28:23.736Z,1.00
2019-04-09T14:30:50.550Z,1.00
2019-04-09T14:33:17.035Z,0.80
2019-04-09T14:35:43.774Z,0.80
2019-04-09T14:38:11.301Z,0.90
2019-04-09T14:40:38.004Z,0.90
2019-04-09T14:43:04.502Z,1.00
2019-04-09T14:45:31.038Z,1.00
2019-04-09T14:47:57.526Z,1.00
2019-04-09T14:50:24.171Z,1.20
2019-04-09T14:52:57.326Z,1.00
2019-04-09T14:55:19.347Z,1.00
2019-04-09T14:57:45.902Z,1.10
2019-04-09T15:00:20.655Z,1.00
2019-04-09T15:02:47.296Z,0.90
2019-04-09T15:05:14.160Z,0.70
2019-04-09T15:07:40.790Z,0.90
2019-04-09T15:10:09.217Z,1.00
2019-04-09T15:12:35.913Z,1.00
2019-04-09T15:15:03.553Z,1.00
2019-04-09T15:17:29.958Z,1.00
2019-04-09T15:19:56.833Z,1.10
2019-04-09T15:22:23.194Z,1.10
2019-04-09T15:24:49.737Z,1.00
2019-04-09T15:27:17.349Z,0.80
2019-04-09T15:29:44.085Z,0.80
2019-04-09T15:32:10.691Z,0.90
2019-04-09T15:34:37.304Z,1.00
2019-04-09T15:37:04.803Z,0.70
2019-04-09T15:39:31.741Z,0.80
2019-04-09T15:41:58.262Z,0.80
2019-04-09T15:44:24.747Z,0.90
2019-04-09T15:46:51.455Z,1.00
2019-04-09T15:49:17.989Z,1.10
2019-04-09T15:51:46.930Z,0.90
2019-04-09T15:54:14.001Z,0.90
2019-04-09T15:56:41.136Z,0.80
2019-04-09T15:59:08.900Z,0.90
2019-04-09T16:01:35.980Z,0.90
2019-04-09T16:04:03.249Z,0.90
2019-04-09T16:06:30.495Z,0.80
2019-04-09T16:08:58.064Z,0.80
2019-04-09T16:11:24.823Z,0.70
2019-04-09T16:13:51.235Z,0.70
2019-04-09T16:16:17.582Z,0.50
2019-04-09T16:18:44.093Z,0.60
2019-04-09T16:21:11.537Z,0.70
2019-04-09T16:23:38.876Z,0.80
2019-04-09T16:26:06.261Z,0.80
2019-04-09T16:28:33.708Z,0.80
2019-04-09T16:31:00.235Z,0.70
2019-04-09T16:33:27.043Z,0.70
2019-04-09T16:35:55.155Z,0.80
2019-04-09T16:38:21.689Z,0.80
2019-04-09T16:40:48.175Z,0.70
2019-04-09T16:43:14.578Z,0.80
2019-04-09T16:45:41.742Z,0.80
2019-04-09T16:48:08.379Z,0.70
2019-04-09T16:50:35.156Z,0.70
2019-04-09T16:53:01.755Z,0.80
2019-04-09T16:55:28.483Z,0.70
2019-04-09T16:58:02.616Z,0.80
2019-04-09T17:00:25.792Z,0.80
2019-04-09T17:02:54.318Z,0.70
2019-04-09T17:05:20.092Z,0.70
2019-04-09T17:07:50.312Z,0.60
2019-04-09T17:10:20.366Z,0.60
2019-04-09T17:12:48.523Z,0.60
2019-04-09T17:15:15.568Z,0.50
2019-04-09T17:17:42.423Z,0.50
2019-04-09T17:20:10.213Z,0.50
2019-04-09T17:22:36.893Z,0.50
2019-04-09T17:25:04.096Z,0.60
2019-04-09T17:27:30.475Z,0.60
2019-04-09T17:29:57.479Z,0.60
2019-04-09T17:32:24.012Z,0.60
2019-04-09T17:34:50.470Z,0.60
2019-04-09T17:37:16.980Z,0.70
2019-04-09T17:39:43.805Z,0.60
2019-04-09T17:42:12.922Z,0.60
2019-04-09T17:44:39.435Z,0.60
2019-04-09T17:47:06.206Z,0.60
2019-04-09T17:49:33.371Z,0.60
2019-04-09T17:51:59.765Z,0.60
2019-04-09T17:54:26.156Z,0.70
2019-04-09T17:56:52.523Z,0.60
2019-04-09T17:59:19.048Z,0.60
2019-04-09T18:01:45.972Z,0.50
2019-04-09T18:04:12.464Z,0.60
2019-04-09T18:06:38.851Z,0.60
2019-04-09T18:09:05.536Z,0.60
2019-04-09T18:11:33.163Z,0.60
2019-04-09T18:14:00.324Z,0.60
2019-04-09T18:16:26.938Z,0.60
2019-04-09T18:18:54.569Z,0.60
2019-04-09T18:21:21.130Z,0.50
2019-04-09T18:23:48.698Z,0.50
2019-04-09T18:26:15.114Z,0.60
2019-04-09T18:28:42.651Z,0.60
2019-04-09T18:31:19.072Z,0.70
2019-04-09T18:33:38.485Z,0.60
2019-04-09T18:36:04.757Z,0.60
2019-04-09T18:38:31.147Z,0.60
2019-04-09T18:40:59.242Z,0.70
2019-04-09T18:43:25.794Z,0.70
2019-04-09T18:45:53.113Z,0.70
2019-04-09T18:48:31.064Z,0.70
2019-04-09T18:50:48.813Z,0.60
2019-04-09T18:53:15.310Z,0.70
2019-04-09T18:55:42.471Z,0.60
2019-04-09T18:58:08.917Z,0.70
2019-04-09T19:00:36.467Z,0.60
2019-04-09T19:03:03.926Z,0.70
2019-04-09T19:05:30.422Z,0.60
2019-04-09T19:07:57.171Z,0.60
2019-04-09T19:10:23.608Z,0.60
2019-04-09T19:12:50.943Z,0.60
2019-04-09T19:15:17.595Z,0.60
2019-04-09T19:17:44.278Z,0.60
2019-04-09T19:20:12.537Z,0.70
2019-04-09T19:22:39.952Z,0.70
2019-04-09T19:25:06.819Z,0.70
2019-04-09T19:27:33.775Z,0.60
2019-04-09T19:30:00.154Z,0.50
2019-04-09T19:32:28.042Z,0.60
2019-04-09T19:34:54.810Z,0.60
2019-04-09T19:37:21.227Z,0.60
2019-04-09T19:40:05.734Z,0.60
2019-04-09T19:42:33.360Z,0.50
2019-04-09T19:45:00.186Z,0.40
2019-04-09T19:47:27.096Z,0.50
2019-04-09T19:49:53.535Z,0.40
2019-04-09T19:52:20.800Z,0.50
2019-04-09T19:54:47.429Z,0.60
2019-04-09T19:57:15.664Z,0.60
2019-04-09T19:59:42.415Z,0.60
2019-04-09T20:02:08.982Z,0.50
2019-04-09T20:04:35.480Z,0.40
2019-04-09T20:07:01.999Z,0.50
2019-04-09T20:09:29.491Z,0.50
2019-04-09T20:11:56.416Z,0.50
2019-04-09T20:14:24.208Z,0.50
2019-04-09T20:16:51.083Z,0.50
2019-04-09T20:19:18.526Z,0.50
2019-04-09T20:21:44.945Z,0.50
2019-04-09T20:24:11.574Z,0.50
2019-04-09T20:26:37.972Z,0.50
2019-04-09T20:29:05.199Z,0.60
2019-04-09T20:31:32.572Z,0.60
2019-04-09T20:33:59.461Z,0.60
2019-04-09T20:36:28.161Z,0.60
2019-04-09T20:38:55.445Z,0.60
2019-04-09T20:41:23.633Z,0.60
2019-04-09T20:43:51.212Z,0.60
2019-04-09T20:46:17.881Z,0.60
2019-04-09T20:48:44.407Z,0.70
2019-04-09T20:51:11.181Z,0.70
2019-04-09T20:53:38.114Z,0.60
2019-04-09T20:56:04.637Z,0.70
2019-04-09T20:58:30.997Z,0.70
2019-04-09T21:01:15.578Z,0.60
2019-04-09T21:03:53.763Z,0.60
2019-04-09T21:06:23.509Z,0.70
2019-04-09T21:08:50.047Z,0.70
2019-04-09T21:11:17.728Z,0.60
2019-04-09T21:13:44.907Z,0.60
2019-04-09T21:16:12.005Z,0.60
2019-04-09T21:18:38.989Z,0.70
2019-04-09T21:21:05.766Z,0.60
2019-04-09T21:23:32.450Z,0.70
2019-04-09T21:25:59.743Z,0.70
2019-04-09T21:28:26.209Z,0.70
2019-04-09T21:30:52.710Z,0.70
2019-04-09T21:33:20.415Z,0.90
2019-04-09T21:35:47.797Z,0.70
2019-04-09T21:38:14.071Z,0.80
2019-04-09T21:40:42.113Z,0.80
2019-04-09T21:43:09.582Z,0.70
2019-04-09T21:45:36.752Z,0.80
2019-04-09T21:48:03.522Z,0.70
2019-04-09T21:50:30.942Z,0.80
2019-04-09T21:52:57.397Z,0.70
2019-04-09T21:55:24.524Z,0.70
2019-04-09T21:57:51.833Z,0.70
2019-04-09T22:00:26.889Z,0.80
2019-04-09T22:02:53.394Z,0.70
2019-04-09T22:05:20.862Z,0.70
2019-04-09T22:07:47.447Z,0.80
2019-04-09T22:10:14.108Z,0.70
2019-04-09T22:12:40.478Z,0.70
2019-04-09T22:15:07.096Z,0.70
2019-04-09T22:17:34.132Z,0.70
2019-04-09T22:20:03.120Z,0.70
2019-04-09T22:22:29.408Z,0.70
2019-04-09T22:24:56.306Z,0.70
2019-04-09T22:27:22.726Z,0.60
2019-04-09T22:29:49.634Z,0.60
2019-04-09T22:32:15.978Z,0.60
2019-04-09T22:34:42.387Z,0.60
2019-04-09T22:37:09.066Z,0.60
2019-04-09T22:39:36.618Z,0.60
2019-04-09T22:42:03.101Z,0.70
2019-04-09T22:44:29.505Z,0.60
2019-04-09T22:46:55.881Z,0.70
2019-04-09T22:49:22.274Z,0.70
2019-04-09T22:51:48.719Z,0.70
2019-04-09T22:54:15.193Z,0.70
2019-04-09T22:56:41.699Z,0.60
2019-04-09T22:59:09.097Z,0.70
2019-04-09T23:01:54.030Z,0.70
2019-04-09T23:04:31.766Z,0.70
2019-04-09T23:07:14.850Z,0.70
2019-04-09T23:09:44.476Z,0.70
2019-04-09T23:12:19.368Z,0.60
2019-04-09T23:14:46.391Z,0.60
2019-04-09T23:17:13.381Z,0.70
2019-04-09T23:19:39.857Z,0.60
2019-04-09T23:22:06.714Z,0.60
2019-04-09T23:24:33.618Z,0.60
2019-04-09T23:27:00.111Z,0.70
2019-04-09T23:29:26.760Z,0.70
2019-04-09T23:31:53.102Z,0.70
2019-04-09T23:34:19.890Z,0.80
2019-04-09T23:36:55.739Z,0.70
2019-04-09T23:39:14.479Z,0.80
2019-04-09T23:41:41.896Z,0.80
2019-04-09T23:44:08.453Z,0.80
2019-04-09T23:46:35.164Z,0.80
2019-04-09T23:49:02.274Z,0.70
2019-04-09T23:51:28.763Z,0.70
2019-04-09T23:53:55.368Z,0.80
2019-04-09T23:56:21.837Z,0.70
2019-04-09T23:58:49.289Z,0.70
